sensor_id;sensor_type;location;lat;lon;timestamp;P1;durP1;ratioP1;P2;durP2;ratioP2
14358;SDS011;7263;49.418;11.064;2023-11-19T00:01:52;7.20;;;6.60;;
14358;SDS011;7263;49.418;11.064;2023-11-19T00:04:19;6.80;;;6.20;;
14358;SDS011;7263;49.418;11.064;2023-11-19T00:06:56;7.47;;;6.77;;
14358;SDS011;7263;49.418;11.064;2023-11-19T00:09:31;8.80;;;7.40;;
14358;SDS011;7263;49.418;11.064;2023-11-19T00:12:07;7.93;;;7.00;;
14358;SDS011;7263;49.418;11.064;2023-11-19T00:14:38;7.33;;;6.63;;
14358;SDS011;7263;49.418;11.064;2023-11-19T00:17:05;8.07;;;6.57;;
14358;SDS011;7263;49.418;11.064;2023-11-19T00:19:31;6.73;;;6.13;;
14358;SDS011;7263;49.418;11.064;2023-11-19T00:22:05;11.30;;;6.73;;
14358;SDS011;7263;49.418;11.064;2023-11-19T00:24:38;7.67;;;6.97;;
14358;SDS011;7263;49.418;11.064;2023-11-19T00:27:05;7.80;;;7.10;;
14358;SDS011;7263;49.418;11.064;2023-11-19T00:29:32;7.10;;;6.40;;
14358;SDS011;7263;49.418;11.064;2023-11-19T00:31:59;7.10;;;6.40;;
14358;SDS011;7263;49.418;11.064;2023-11-19T00:34:30;7.63;;;6.83;;
14358;SDS011;7263;49.418;11.064;2023-11-19T00:36:57;7.67;;;6.87;;
14358;SDS011;7263;49.418;11.064;2023-11-19T00:39:27;8.00;;;7.03;;
14358;SDS011;7263;49.418;11.064;2023-11-19T00:41:57;7.50;;;6.80;;
14358;SDS011;7263;49.418;11.064;2023-11-19T00:44:39;7.43;;;6.83;;
14358;SDS011;7263;49.418;11.064;2023-11-19T00:47:06;7.77;;;6.83;;
14358;SDS011;7263;49.418;11.064;2023-11-19T00:49:35;8.03;;;7.23;;
14358;SDS011;7263;49.418;11.064;2023-11-19T00:52:08;8.33;;;7.53;;
14358;SDS011;7263;49.418;11.064;2023-11-19T00:54:44;8.43;;;7.53;;
14358;SDS011;7263;49.418;11.064;2023-11-19T00:59:55;7.37;;;6.67;;
14358;SDS011;7263;49.418;11.064;2023-11-19T01:02:25;8.63;;;7.30;;
14358;SDS011;7263;49.418;11.064;2023-11-19T01:04:52;8.00;;;7.20;;
14358;SDS011;7263;49.418;11.064;2023-11-19T01:07:21;8.07;;;6.87;;
14358;SDS011;7263;49.418;11.064;2023-11-19T01:09:53;8.10;;;7.30;;
14358;SDS011;7263;49.418;11.064;2023-11-19T01:12:26;7.33;;;6.63;;
14358;SDS011;7263;49.418;11.064;2023-11-19T01:14:56;7.10;;;6.40;;
14358;SDS011;7263;49.418;11.064;2023-11-19T01:17:23;7.00;;;6.30;;
14358;SDS011;7263;49.418;11.064;2023-11-19T01:19:49;7.97;;;6.73;;
14358;SDS011;7263;49.418;11.064;2023-11-19T01:22:22;7.87;;;7.13;;
14358;SDS011;7263;49.418;11.064;2023-11-19T01:24:49;7.47;;;6.77;;
14358;SDS011;7263;49.418;11.064;2023-11-19T01:27:18;7.43;;;6.73;;
14358;SDS011;7263;49.418;11.064;2023-11-19T01:29:48;7.27;;;6.57;;
14358;SDS011;7263;49.418;11.064;2023-11-19T01:32:23;7.70;;;6.40;;
14358;SDS011;7263;49.418;11.064;2023-11-19T01:34:50;7.87;;;6.67;;
14358;SDS011;7263;49.418;11.064;2023-11-19T01:37:19;7.73;;;6.90;;
14358;SDS011;7263;49.418;11.064;2023-11-19T01:39:54;7.83;;;7.00;;
14358;SDS011;7263;49.418;11.064;2023-11-19T01:42:24;7.20;;;6.50;;
14358;SDS011;7263;49.418;11.064;2023-11-19T01:44:55;6.87;;;6.17;;
14358;SDS011;7263;49.418;11.064;2023-11-19T01:47:27;7.80;;;6.93;;
14358;SDS011;7263;49.418;11.064;2023-11-19T01:49:58;7.43;;;6.73;;
14358;SDS011;7263;49.418;11.064;2023-11-19T01:52:25;7.50;;;6.57;;
14358;SDS011;7263;49.418;11.064;2023-11-19T01:54:53;10.63;;;6.43;;
14358;SDS011;7263;49.418;11.064;2023-11-19T01:57:27;6.87;;;6.10;;
14358;SDS011;7263;49.418;11.064;2023-11-19T01:59:54;7.10;;;6.37;;
14358;SDS011;7263;49.418;11.064;2023-11-19T02:02:21;6.83;;;6.10;;
14358;SDS011;7263;49.418;11.064;2023-11-19T02:04:50;7.77;;;6.97;;
14358;SDS011;7263;49.418;11.064;2023-11-19T02:07:18;6.87;;;6.17;;
14358;SDS011;7263;49.418;11.064;2023-11-19T02:09:45;7.30;;;6.30;;
14358;SDS011;7263;49.418;11.064;2023-11-19T02:12:12;7.50;;;6.70;;
14358;SDS011;7263;49.418;11.064;2023-11-19T02:14:40;7.23;;;6.47;;
14358;SDS011;7263;49.418;11.064;2023-11-19T02:17:07;8.00;;;7.20;;
14358;SDS011;7263;49.418;11.064;2023-11-19T02:19:51;7.93;;;7.13;;
14358;SDS011;7263;49.418;11.064;2023-11-19T02:22:18;8.03;;;7.23;;
14358;SDS011;7263;49.418;11.064;2023-11-19T02:24:51;7.77;;;6.97;;
14358;SDS011;7263;49.418;11.064;2023-11-19T02:27:22;8.63;;;7.83;;
14358;SDS011;7263;49.418;11.064;2023-11-19T02:30:00;9.17;;;7.23;;
14358;SDS011;7263;49.418;11.064;2023-11-19T02:32:37;8.23;;;7.23;;
14358;SDS011;7263;49.418;11.064;2023-11-19T02:35:08;10.73;;;7.87;;
14358;SDS011;7263;49.418;11.064;2023-11-19T02:37:37;8.70;;;7.67;;
14358;SDS011;7263;49.418;11.064;2023-11-19T02:40:05;8.57;;;7.67;;
14358;SDS011;7263;49.418;11.064;2023-11-19T02:42:34;8.43;;;7.53;;
14358;SDS011;7263;49.418;11.064;2023-11-19T02:45:06;9.40;;;7.90;;
14358;SDS011;7263;49.418;11.064;2023-11-19T02:47:41;9.30;;;8.07;;
14358;SDS011;7263;49.418;11.064;2023-11-19T02:50:11;8.30;;;7.50;;
14358;SDS011;7263;49.418;11.064;2023-11-19T02:55:48;9.00;;;8.07;;
14358;SDS011;7263;49.418;11.064;2023-11-19T02:58:16;8.60;;;7.43;;
14358;SDS011;7263;49.418;11.064;2023-11-19T03:00:53;9.20;;;7.83;;
14358;SDS011;7263;49.418;11.064;2023-11-19T03:03:22;9.03;;;7.30;;
14358;SDS011;7263;49.418;11.064;2023-11-19T03:05:55;8.40;;;7.30;;
14358;SDS011;7263;49.418;11.064;2023-11-19T03:08:34;8.53;;;7.33;;
14358;SDS011;7263;49.418;11.064;2023-11-19T03:11:06;11.17;;;7.93;;
14358;SDS011;7263;49.418;11.064;2023-11-19T03:13:34;10.63;;;8.33;;
14358;SDS011;7263;49.418;11.064;2023-11-19T03:16:07;18.27;;;16.37;;
14358;SDS011;7263;49.418;11.064;2023-11-19T03:18:34;8.67;;;7.63;;
14358;SDS011;7263;49.418;11.064;2023-11-19T03:21:07;8.70;;;7.63;;
14358;SDS011;7263;49.418;11.064;2023-11-19T03:23:34;10.00;;;8.23;;
14358;SDS011;7263;49.418;11.064;2023-11-19T03:26:05;10.23;;;8.53;;
14358;SDS011;7263;49.418;11.064;2023-11-19T03:28:40;10.57;;;8.13;;
14358;SDS011;7263;49.418;11.064;2023-11-19T03:31:12;11.20;;;8.13;;
14358;SDS011;7263;49.418;11.064;2023-11-19T03:33:39;11.63;;;8.83;;
14358;SDS011;7263;49.418;11.064;2023-11-19T03:36:11;12.03;;;8.83;;
14358;SDS011;7263;49.418;11.064;2023-11-19T03:38:41;12.07;;;8.97;;
14358;SDS011;7263;49.418;11.064;2023-11-19T03:41:11;10.90;;;8.70;;
14358;SDS011;7263;49.418;11.064;2023-11-19T03:43:38;10.40;;;8.43;;
14358;SDS011;7263;49.418;11.064;2023-11-19T03:46:16;11.17;;;9.03;;
14358;SDS011;7263;49.418;11.064;2023-11-19T03:48:50;10.67;;;8.23;;
14358;SDS011;7263;49.418;11.064;2023-11-19T03:51:19;14.40;;;9.57;;
14358;SDS011;7263;49.418;11.064;2023-11-19T03:53:46;12.50;;;9.67;;
14358;SDS011;7263;49.418;11.064;2023-11-19T03:56:13;10.90;;;8.67;;
14358;SDS011;7263;49.418;11.064;2023-11-19T03:58:49;14.27;;;9.33;;
14358;SDS011;7263;49.418;11.064;2023-11-19T04:01:21;12.43;;;9.60;;
14358;SDS011;7263;49.418;11.064;2023-11-19T04:03:50;15.20;;;10.73;;
14358;SDS011;7263;49.418;11.064;2023-11-19T04:06:20;12.47;;;10.20;;
14358;SDS011;7263;49.418;11.064;2023-11-19T04:08:56;13.70;;;10.83;;
14358;SDS011;7263;49.418;11.064;2023-11-19T04:11:28;14.20;;;11.30;;
14358;SDS011;7263;49.418;11.064;2023-11-19T04:13:55;13.30;;;11.67;;
14358;SDS011;7263;49.418;11.064;2023-11-19T04:16:27;15.30;;;11.10;;
14358;SDS011;7263;49.418;11.064;2023-11-19T04:18:55;13.40;;;10.37;;
14358;SDS011;7263;49.418;11.064;2023-11-19T04:21:24;12.10;;;10.57;;
14358;SDS011;7263;49.418;11.064;2023-11-19T04:23:54;14.53;;;11.23;;
14358;SDS011;7263;49.418;11.064;2023-11-19T04:26:24;14.77;;;10.67;;
14358;SDS011;7263;49.418;11.064;2023-11-19T04:28:57;12.83;;;9.77;;
14358;SDS011;7263;49.418;11.064;2023-11-19T04:31:29;13.03;;;10.40;;
14358;SDS011;7263;49.418;11.064;2023-11-19T04:34:00;13.73;;;10.20;;
14358;SDS011;7263;49.418;11.064;2023-11-19T04:36:27;13.73;;;10.13;;
14358;SDS011;7263;49.418;11.064;2023-11-19T04:38:54;14.23;;;10.27;;
14358;SDS011;7263;49.418;11.064;2023-11-19T04:41:24;12.33;;;10.40;;
14358;SDS011;7263;49.418;11.064;2023-11-19T04:43:52;12.17;;;9.87;;
14358;SDS011;7263;49.418;11.064;2023-11-19T04:46:19;14.20;;;10.67;;
14358;SDS011;7263;49.418;11.064;2023-11-19T04:48:47;15.57;;;12.37;;
14358;SDS011;7263;49.418;11.064;2023-11-19T04:51:26;13.97;;;10.97;;
14358;SDS011;7263;49.418;11.064;2023-11-19T04:53:52;14.97;;;11.23;;
14358;SDS011;7263;49.418;11.064;2023-11-19T04:56:19;13.83;;;11.10;;
14358;SDS011;7263;49.418;11.064;2023-11-19T04:58:51;14.87;;;11.03;;
14358;SDS011;7263;49.418;11.064;2023-11-19T05:01:20;12.07;;;10.00;;
14358;SDS011;7263;49.418;11.064;2023-11-19T05:03:48;14.30;;;10.90;;
14358;SDS011;7263;49.418;11.064;2023-11-19T05:06:18;13.37;;;11.37;;
14358;SDS011;7263;49.418;11.064;2023-11-19T05:08:45;15.23;;;11.00;;
14358;SDS011;7263;49.418;11.064;2023-11-19T05:11:12;12.47;;;10.37;;
14358;SDS011;7263;49.418;11.064;2023-11-19T05:13:44;16.17;;;10.73;;
14358;SDS011;7263;49.418;11.064;2023-11-19T05:16:15;13.80;;;10.27;;
14358;SDS011;7263;49.418;11.064;2023-11-19T05:18:45;12.30;;;10.50;;
14358;SDS011;7263;49.418;11.064;2023-11-19T05:21:14;15.10;;;11.00;;
14358;SDS011;7263;49.418;11.064;2023-11-19T05:23:42;15.03;;;12.10;;
14358;SDS011;7263;49.418;11.064;2023-11-19T05:26:16;12.10;;;10.00;;
14358;SDS011;7263;49.418;11.064;2023-11-19T05:28:49;10.90;;;9.37;;
14358;SDS011;7263;49.418;11.064;2023-11-19T05:31:17;10.60;;;8.17;;
14358;SDS011;7263;49.418;11.064;2023-11-19T05:33:51;11.33;;;9.03;;
14358;SDS011;7263;49.418;11.064;2023-11-19T05:36:20;12.00;;;8.50;;
14358;SDS011;7263;49.418;11.064;2023-11-19T05:38:51;11.10;;;8.67;;
14358;SDS011;7263;49.418;11.064;2023-11-19T05:41:17;11.17;;;8.10;;
14358;SDS011;7263;49.418;11.064;2023-11-19T05:43:47;10.20;;;7.90;;
14358;SDS011;7263;49.418;11.064;2023-11-19T05:46:19;10.57;;;8.00;;
14358;SDS011;7263;49.418;11.064;2023-11-19T05:48:52;10.07;;;8.17;;
14358;SDS011;7263;49.418;11.064;2023-11-19T05:51:23;9.07;;;7.10;;
14358;SDS011;7263;49.418;11.064;2023-11-19T05:53:53;9.40;;;7.73;;
14358;SDS011;7263;49.418;11.064;2023-11-19T05:56:22;8.93;;;7.50;;
14358;SDS011;7263;49.418;11.064;2023-11-19T05:58:57;11.03;;;7.57;;
14358;SDS011;7263;49.418;11.064;2023-11-19T06:01:34;9.00;;;7.07;;
14358;SDS011;7263;49.418;11.064;2023-11-19T06:04:05;8.13;;;7.30;;
14358;SDS011;7263;49.418;11.064;2023-11-19T06:06:39;7.27;;;5.93;;
14358;SDS011;7263;49.418;11.064;2023-11-19T06:09:06;9.10;;;7.10;;
14358;SDS011;7263;49.418;11.064;2023-11-19T06:11:41;7.47;;;6.27;;
14358;SDS011;7263;49.418;11.064;2023-11-19T06:14:09;11.37;;;8.77;;
14358;SDS011;7263;49.418;11.064;2023-11-19T06:16:36;12.40;;;7.93;;
14358;SDS011;7263;49.418;11.064;2023-11-19T06:19:05;9.10;;;6.83;;
14358;SDS011;7263;49.418;11.064;2023-11-19T06:21:39;7.30;;;6.30;;
14358;SDS011;7263;49.418;11.064;2023-11-19T06:24:07;8.30;;;6.30;;
14358;SDS011;7263;49.418;11.064;2023-11-19T06:26:36;8.23;;;6.60;;
14358;SDS011;7263;49.418;11.064;2023-11-19T06:29:04;8.10;;;6.13;;
14358;SDS011;7263;49.418;11.064;2023-11-19T06:31:31;7.23;;;5.97;;
14358;SDS011;7263;49.418;11.064;2023-11-19T06:34:00;8.27;;;6.10;;
14358;SDS011;7263;49.418;11.064;2023-11-19T06:36:27;8.33;;;6.10;;
14358;SDS011;7263;49.418;11.064;2023-11-19T06:38:57;6.83;;;5.73;;
14358;SDS011;7263;49.418;11.064;2023-11-19T06:41:24;7.90;;;5.27;;
14358;SDS011;7263;49.418;11.064;2023-11-19T06:43:56;6.33;;;5.30;;
14358;SDS011;7263;49.418;11.064;2023-11-19T06:46:24;6.60;;;5.60;;
14358;SDS011;7263;49.418;11.064;2023-11-19T06:48:51;7.63;;;5.83;;
14358;SDS011;7263;49.418;11.064;2023-11-19T06:51:18;7.13;;;5.47;;
14358;SDS011;7263;49.418;11.064;2023-11-19T06:53:45;6.10;;;5.43;;
14358;SDS011;7263;49.418;11.064;2023-11-19T06:56:20;6.27;;;5.00;;
14358;SDS011;7263;49.418;11.064;2023-11-19T06:58:47;5.47;;;4.80;;
14358;SDS011;7263;49.418;11.064;2023-11-19T07:01:17;6.20;;;5.13;;
14358;SDS011;7263;49.418;11.064;2023-11-19T07:03:48;5.67;;;4.23;;
14358;SDS011;7263;49.418;11.064;2023-11-19T07:06:20;4.77;;;4.27;;
14358;SDS011;7263;49.418;11.064;2023-11-19T07:08:48;5.27;;;4.27;;
14358;SDS011;7263;49.418;11.064;2023-11-19T07:11:19;4.40;;;4.00;;
14358;SDS011;7263;49.418;11.064;2023-11-19T07:13:47;7.50;;;4.53;;
14358;SDS011;7263;49.418;11.064;2023-11-19T07:16:15;5.20;;;4.33;;
14358;SDS011;7263;49.418;11.064;2023-11-19T07:18:41;3.60;;;3.30;;
14358;SDS011;7263;49.418;11.064;2023-11-19T07:21:09;3.93;;;3.53;;
14358;SDS011;7263;49.418;11.064;2023-11-19T07:23:38;4.13;;;3.17;;
14358;SDS011;7263;49.418;11.064;2023-11-19T07:26:14;3.80;;;3.10;;
14358;SDS011;7263;49.418;11.064;2023-11-19T07:28:44;3.47;;;2.50;;
14358;SDS011;7263;49.418;11.064;2023-11-19T07:31:16;2.60;;;2.40;;
14358;SDS011;7263;49.418;11.064;2023-11-19T07:33:44;3.37;;;2.83;;
14358;SDS011;7263;49.418;11.064;2023-11-19T07:36:14;2.67;;;2.30;;
14358;SDS011;7263;49.418;11.064;2023-11-19T07:38:41;3.80;;;2.70;;
14358;SDS011;7263;49.418;11.064;2023-11-19T07:41:08;2.20;;;2.00;;
14358;SDS011;7263;49.418;11.064;2023-11-19T07:43:46;2.50;;;2.30;;
14358;SDS011;7263;49.418;11.064;2023-11-19T07:46:13;2.23;;;2.00;;
14358;SDS011;7263;49.418;11.064;2023-11-19T07:48:40;1.93;;;1.73;;
14358;SDS011;7263;49.418;11.064;2023-11-19T07:51:10;1.83;;;1.60;;
14358;SDS011;7263;49.418;11.064;2023-11-19T07:53:37;1.70;;;1.60;;
14358;SDS011;7263;49.418;11.064;2023-11-19T07:56:11;2.17;;;1.47;;
14358;SDS011;7263;49.418;11.064;2023-11-19T07:58:38;1.27;;;1.10;;
14358;SDS011;7263;49.418;11.064;2023-11-19T08:01:06;2.20;;;1.20;;
14358;SDS011;7263;49.418;11.064;2023-11-19T08:03:35;0.90;;;0.90;;
14358;SDS011;7263;49.418;11.064;2023-11-19T08:06:05;2.20;;;0.87;;
14358;SDS011;7263;49.418;11.064;2023-11-19T08:08:38;0.80;;;0.80;;
14358;SDS011;7263;49.418;11.064;2023-11-19T08:11:05;1.53;;;0.73;;
14358;SDS011;7263;49.418;11.064;2023-11-19T08:13:35;0.83;;;0.83;;
14358;SDS011;7263;49.418;11.064;2023-11-19T08:16:08;1.90;;;0.90;;
14358;SDS011;7263;49.418;11.064;2023-11-19T08:18:35;0.77;;;0.77;;
14358;SDS011;7263;49.418;11.064;2023-11-19T08:21:07;1.63;;;1.00;;
14358;SDS011;7263;49.418;11.064;2023-11-19T08:23:34;2.77;;;0.80;;
14358;SDS011;7263;49.418;11.064;2023-11-19T08:26:04;1.53;;;1.20;;
14358;SDS011;7263;49.418;11.064;2023-11-19T08:28:40;1.43;;;1.00;;
14358;SDS011;7263;49.418;11.064;2023-11-19T08:31:12;1.47;;;1.10;;
14358;SDS011;7263;49.418;11.064;2023-11-19T08:33:39;1.10;;;0.90;;
14358;SDS011;7263;49.418;11.064;2023-11-19T08:36:15;1.47;;;1.00;;
14358;SDS011;7263;49.418;11.064;2023-11-19T08:38:51;1.43;;;1.17;;
14358;SDS011;7263;49.418;11.064;2023-11-19T08:41:18;0.97;;;0.87;;
14358;SDS011;7263;49.418;11.064;2023-11-19T08:43:47;2.80;;;1.40;;
14358;SDS011;7263;49.418;11.064;2023-11-19T08:46:19;2.27;;;1.03;;
14358;SDS011;7263;49.418;11.064;2023-11-19T08:48:45;2.17;;;1.30;;
14358;SDS011;7263;49.418;11.064;2023-11-19T08:51:12;2.60;;;1.07;;
14358;SDS011;7263;49.418;11.064;2023-11-19T08:53:38;2.20;;;1.13;;
14358;SDS011;7263;49.418;11.064;2023-11-19T08:56:07;1.27;;;1.10;;
14358;SDS011;7263;49.418;11.064;2023-11-19T08:58:34;4.77;;;1.20;;
14358;SDS011;7263;49.418;11.064;2023-11-19T09:01:04;2.93;;;1.23;;
14358;SDS011;7263;49.418;11.064;2023-11-19T09:03:36;3.10;;;1.20;;
14358;SDS011;7263;49.418;11.064;2023-11-19T09:06:05;2.73;;;1.07;;
14358;SDS011;7263;49.418;11.064;2023-11-19T09:08:41;6.00;;;2.47;;
14358;SDS011;7263;49.418;11.064;2023-11-19T09:11:08;2.17;;;1.33;;
14358;SDS011;7263;49.418;11.064;2023-11-19T09:13:45;2.70;;;1.30;;
14358;SDS011;7263;49.418;11.064;2023-11-19T09:16:14;2.07;;;1.23;;
14358;SDS011;7263;49.418;11.064;2023-11-19T09:18:45;1.80;;;1.10;;
14358;SDS011;7263;49.418;11.064;2023-11-19T09:21:14;1.60;;;1.00;;
14358;SDS011;7263;49.418;11.064;2023-11-19T09:23:49;3.30;;;1.23;;
14358;SDS011;7263;49.418;11.064;2023-11-19T09:26:19;1.20;;;1.00;;
14358;SDS011;7263;49.418;11.064;2023-11-19T09:28:46;1.60;;;1.30;;
14358;SDS011;7263;49.418;11.064;2023-11-19T09:31:16;3.57;;;2.97;;
14358;SDS011;7263;49.418;11.064;2023-11-19T09:33:44;1.20;;;1.10;;
14358;SDS011;7263;49.418;11.064;2023-11-19T09:36:19;2.43;;;1.30;;
14358;SDS011;7263;49.418;11.064;2023-11-19T09:38:55;1.07;;;0.87;;
14358;SDS011;7263;49.418;11.064;2023-11-19T09:41:26;2.07;;;1.50;;
14358;SDS011;7263;49.418;11.064;2023-11-19T09:43:53;1.40;;;1.17;;
14358;SDS011;7263;49.418;11.064;2023-11-19T09:46:23;3.47;;;1.30;;
14358;SDS011;7263;49.418;11.064;2023-11-19T09:48:56;0.80;;;0.80;;
14358;SDS011;7263;49.418;11.064;2023-11-19T09:51:38;2.37;;;1.00;;
14358;SDS011;7263;49.418;11.064;2023-11-19T09:54:14;3.50;;;1.80;;
14358;SDS011;7263;49.418;11.064;2023-11-19T09:56:41;1.03;;;0.87;;
14358;SDS011;7263;49.418;11.064;2023-11-19T09:59:10;3.07;;;0.80;;
14358;SDS011;7263;49.418;11.064;2023-11-19T10:01:37;1.73;;;1.00;;
14358;SDS011;7263;49.418;11.064;2023-11-19T10:04:09;0.80;;;0.80;;
14358;SDS011;7263;49.418;11.064;2023-11-19T10:06:38;1.57;;;1.00;;
14358;SDS011;7263;49.418;11.064;2023-11-19T10:09:08;1.47;;;1.00;;
14358;SDS011;7263;49.418;11.064;2023-11-19T10:11:40;2.50;;;1.23;;
14358;SDS011;7263;49.418;11.064;2023-11-19T10:14:17;3.50;;;1.20;;
14358;SDS011;7263;49.418;11.064;2023-11-19T10:16:49;2.20;;;1.20;;
14358;SDS011;7263;49.418;11.064;2023-11-19T10:19:22;1.23;;;0.90;;
14358;SDS011;7263;49.418;11.064;2023-11-19T10:21:49;1.80;;;0.80;;
14358;SDS011;7263;49.418;11.064;2023-11-19T10:24:15;1.33;;;0.70;;
14358;SDS011;7263;49.418;11.064;2023-11-19T10:26:59;2.37;;;0.90;;
14358;SDS011;7263;49.418;11.064;2023-11-19T10:29:28;1.33;;;1.03;;
14358;SDS011;7263;49.418;11.064;2023-11-19T10:31:58;2.30;;;0.90;;
14358;SDS011;7263;49.418;11.064;2023-11-19T10:34:33;1.10;;;1.00;;
14358;SDS011;7263;49.418;11.064;2023-11-19T10:37:02;1.37;;;1.00;;
14358;SDS011;7263;49.418;11.064;2023-11-19T10:39:37;1.33;;;0.90;;
14358;SDS011;7263;49.418;11.064;2023-11-19T10:42:19;1.10;;;1.00;;
14358;SDS011;7263;49.418;11.064;2023-11-19T10:44:49;0.77;;;0.77;;
14358;SDS011;7263;49.418;11.064;2023-11-19T10:47:19;1.87;;;1.20;;
14358;SDS011;7263;49.418;11.064;2023-11-19T10:49:48;3.27;;;1.30;;
14358;SDS011;7263;49.418;11.064;2023-11-19T10:52:17;1.57;;;1.40;;
14358;SDS011;7263;49.418;11.064;2023-11-19T10:54:47;2.23;;;1.10;;
14358;SDS011;7263;49.418;11.064;2023-11-19T10:57:17;1.10;;;0.90;;
14358;SDS011;7263;49.418;11.064;2023-11-19T10:59:52;1.00;;;0.90;;
14358;SDS011;7263;49.418;11.064;2023-11-19T11:02:26;1.20;;;0.80;;
14358;SDS011;7263;49.418;11.064;2023-11-19T11:04:56;0.90;;;0.73;;
14358;SDS011;7263;49.418;11.064;2023-11-19T11:07:23;2.97;;;0.90;;
14358;SDS011;7263;49.418;11.064;2023-11-19T11:09:56;0.90;;;0.80;;
14358;SDS011;7263;49.418;11.064;2023-11-19T11:12:26;1.77;;;0.97;;
14358;SDS011;7263;49.418;11.064;2023-11-19T11:14:53;1.93;;;1.00;;
14358;SDS011;7263;49.418;11.064;2023-11-19T11:17:21;0.93;;;0.83;;
14358;SDS011;7263;49.418;11.064;2023-11-19T11:19:55;0.73;;;0.70;;
14358;SDS011;7263;49.418;11.064;2023-11-19T11:22:23;3.00;;;1.30;;
14358;SDS011;7263;49.418;11.064;2023-11-19T11:25:09;1.80;;;0.63;;
14358;SDS011;7263;49.418;11.064;2023-11-19T11:27:51;1.63;;;0.83;;
14358;SDS011;7263;49.418;11.064;2023-11-19T11:30:46;2.70;;;1.00;;
14358;SDS011;7263;49.418;11.064;2023-11-19T11:33:26;1.00;;;0.83;;
14358;SDS011;7263;49.418;11.064;2023-11-19T11:36:05;2.37;;;1.10;;
14358;SDS011;7263;49.418;11.064;2023-11-19T11:38:49;2.43;;;1.43;;
14358;SDS011;7263;49.418;11.064;2023-11-19T11:41:24;2.50;;;1.00;;
14358;SDS011;7263;49.418;11.064;2023-11-19T11:43:51;2.37;;;1.30;;
14358;SDS011;7263;49.418;11.064;2023-11-19T11:49:24;3.30;;;1.20;;
14358;SDS011;7263;49.418;11.064;2023-11-19T11:52:03;1.30;;;0.83;;
14358;SDS011;7263;49.418;11.064;2023-11-19T11:54:30;2.90;;;1.70;;
14358;SDS011;7263;49.418;11.064;2023-11-19T11:59:46;2.33;;;1.20;;
14358;SDS011;7263;49.418;11.064;2023-11-19T12:02:23;1.73;;;1.10;;
14358;SDS011;7263;49.418;11.064;2023-11-19T12:04:59;3.37;;;1.37;;
14358;SDS011;7263;49.418;11.064;2023-11-19T12:10:28;1.47;;;1.10;;
14358;SDS011;7263;49.418;11.064;2023-11-19T12:12:59;2.70;;;1.33;;
14358;SDS011;7263;49.418;11.064;2023-11-19T12:18:35;2.00;;;1.17;;
14358;SDS011;7263;49.418;11.064;2023-11-19T12:21:06;2.03;;;1.30;;
14358;SDS011;7263;49.418;11.064;2023-11-19T12:26:40;3.00;;;1.30;;
14358;SDS011;7263;49.418;11.064;2023-11-19T12:29:13;2.37;;;1.23;;
14358;SDS011;7263;49.418;11.064;2023-11-19T12:31:43;2.60;;;1.40;;
14358;SDS011;7263;49.418;11.064;2023-11-19T12:34:13;2.63;;;1.40;;
14358;SDS011;7263;49.418;11.064;2023-11-19T12:36:42;1.83;;;1.20;;
14358;SDS011;7263;49.418;11.064;2023-11-19T12:39:16;2.40;;;1.30;;
14358;SDS011;7263;49.418;11.064;2023-11-19T12:41:52;1.37;;;0.90;;
14358;SDS011;7263;49.418;11.064;2023-11-19T12:44:19;1.17;;;0.90;;
14358;SDS011;7263;49.418;11.064;2023-11-19T12:47:04;3.80;;;0.93;;
14358;SDS011;7263;49.418;11.064;2023-11-19T12:49:52;2.80;;;1.57;;
14358;SDS011;7263;49.418;11.064;2023-11-19T12:52:23;2.17;;;1.50;;
14358;SDS011;7263;49.418;11.064;2023-11-19T12:54:56;2.43;;;1.43;;
14358;SDS011;7263;49.418;11.064;2023-11-19T12:57:36;1.77;;;1.00;;
14358;SDS011;7263;49.418;11.064;2023-11-19T13:00:04;2.83;;;1.20;;
14358;SDS011;7263;49.418;11.064;2023-11-19T13:02:48;1.37;;;1.20;;
14358;SDS011;7263;49.418;11.064;2023-11-19T13:05:27;0.73;;;0.73;;
14358;SDS011;7263;49.418;11.064;2023-11-19T13:07:58;3.83;;;1.00;;
14358;SDS011;7263;49.418;11.064;2023-11-19T13:13:18;2.07;;;0.90;;
14358;SDS011;7263;49.418;11.064;2023-11-19T13:15:46;1.30;;;0.83;;
14358;SDS011;7263;49.418;11.064;2023-11-19T13:18:15;2.60;;;1.07;;
14358;SDS011;7263;49.418;11.064;2023-11-19T13:20:45;1.23;;;0.90;;
14358;SDS011;7263;49.418;11.064;2023-11-19T13:23:21;2.10;;;1.00;;
14358;SDS011;7263;49.418;11.064;2023-11-19T13:25:48;3.10;;;1.07;;
14358;SDS011;7263;49.418;11.064;2023-11-19T13:28:19;1.47;;;0.80;;
14358;SDS011;7263;49.418;11.064;2023-11-19T13:30:47;0.70;;;0.70;;
14358;SDS011;7263;49.418;11.064;2023-11-19T13:33:41;3.40;;;1.10;;
14358;SDS011;7263;49.418;11.064;2023-11-19T13:36:08;1.20;;;0.70;;
14358;SDS011;7263;49.418;11.064;2023-11-19T13:38:41;1.33;;;0.90;;
14358;SDS011;7263;49.418;11.064;2023-11-19T13:41:09;1.53;;;1.07;;
14358;SDS011;7263;49.418;11.064;2023-11-19T13:43:42;4.17;;;1.40;;
14358;SDS011;7263;49.418;11.064;2023-11-19T13:46:09;1.60;;;1.20;;
14358;SDS011;7263;49.418;11.064;2023-11-19T13:48:39;2.63;;;1.10;;
14358;SDS011;7263;49.418;11.064;2023-11-19T13:51:07;1.77;;;1.07;;
14358;SDS011;7263;49.418;11.064;2023-11-19T13:53:35;4.30;;;1.67;;
14358;SDS011;7263;49.418;11.064;2023-11-19T13:56:02;3.90;;;1.40;;
14358;SDS011;7263;49.418;11.064;2023-11-19T13:58:29;4.17;;;1.77;;
14358;SDS011;7263;49.418;11.064;2023-11-19T14:01:06;1.93;;;1.50;;
14358;SDS011;7263;49.418;11.064;2023-11-19T14:03:41;1.70;;;1.50;;
14358;SDS011;7263;49.418;11.064;2023-11-19T14:06:26;2.33;;;1.67;;
14358;SDS011;7263;49.418;11.064;2023-11-19T14:08:55;1.60;;;1.30;;
14358;SDS011;7263;49.418;11.064;2023-11-19T14:11:24;4.37;;;1.67;;
14358;SDS011;7263;49.418;11.064;2023-11-19T14:13:54;2.07;;;1.47;;
14358;SDS011;7263;49.418;11.064;2023-11-19T14:16:32;2.00;;;1.23;;
14358;SDS011;7263;49.418;11.064;2023-11-19T14:18:59;3.23;;;1.10;;
14358;SDS011;7263;49.418;11.064;2023-11-19T14:21:26;1.30;;;0.90;;
14358;SDS011;7263;49.418;11.064;2023-11-19T14:23:58;1.00;;;0.60;;
14358;SDS011;7263;49.418;11.064;2023-11-19T14:26:25;1.63;;;0.90;;
14358;SDS011;7263;49.418;11.064;2023-11-19T14:28:52;3.27;;;1.60;;
14358;SDS011;7263;49.418;11.064;2023-11-19T14:31:21;1.67;;;0.97;;
14358;SDS011;7263;49.418;11.064;2023-11-19T14:34:07;1.97;;;0.97;;
14358;SDS011;7263;49.418;11.064;2023-11-19T14:36:41;1.27;;;0.90;;
14358;SDS011;7263;49.418;11.064;2023-11-19T14:39:22;2.23;;;1.13;;
14358;SDS011;7263;49.418;11.064;2023-11-19T14:41:48;2.90;;;1.23;;
14358;SDS011;7263;49.418;11.064;2023-11-19T14:44:16;1.30;;;1.20;;
14358;SDS011;7263;49.418;11.064;2023-11-19T14:46:49;1.93;;;0.83;;
14358;SDS011;7263;49.418;11.064;2023-11-19T14:49:19;2.07;;;1.40;;
14358;SDS011;7263;49.418;11.064;2023-11-19T14:51:55;4.00;;;2.13;;
14358;SDS011;7263;49.418;11.064;2023-11-19T14:54:27;4.20;;;1.70;;
14358;SDS011;7263;49.418;11.064;2023-11-19T14:56:58;1.23;;;1.03;;
14358;SDS011;7263;49.418;11.064;2023-11-19T14:59:28;3.10;;;1.60;;
14358;SDS011;7263;49.418;11.064;2023-11-19T15:01:55;4.73;;;3.13;;
14358;SDS011;7263;49.418;11.064;2023-11-19T15:04:26;4.10;;;2.97;;
14358;SDS011;7263;49.418;11.064;2023-11-19T15:06:53;2.73;;;2.13;;
14358;SDS011;7263;49.418;11.064;2023-11-19T15:09:25;4.70;;;3.47;;
14358;SDS011;7263;49.418;11.064;2023-11-19T15:11:55;6.43;;;3.93;;
14358;SDS011;7263;49.418;11.064;2023-11-19T15:14:34;6.77;;;4.63;;
14358;SDS011;7263;49.418;11.064;2023-11-19T15:17:00;5.93;;;4.33;;
14358;SDS011;7263;49.418;11.064;2023-11-19T15:19:29;4.43;;;3.47;;
14358;SDS011;7263;49.418;11.064;2023-11-19T15:21:56;3.47;;;2.00;;
14358;SDS011;7263;49.418;11.064;2023-11-19T15:24:22;2.37;;;1.60;;
14358;SDS011;7263;49.418;11.064;2023-11-19T15:26:53;3.47;;;1.47;;
14358;SDS011;7263;49.418;11.064;2023-11-19T15:29:23;3.53;;;1.50;;